KSUW/SUW METAR and TAF weather

Enter ICAO airport designator
Station Type Date Time Source
KSUW METAR 2021/07/30 23:15 UTC NOAA

KSUW 302315Z AUTO 18005KT 10SM CLR 25/14 A3004 RMK AO2 T02470143


Station Type Date Time Source
KSUW Decoded METAR 2021/07/30 23:15 UTC NOAA

Superior, Richard I. Bong Airport, WI, United States (KSUW) 46-41-23N 092-05-41W
Jul 30, 2021 - 07:15 PM EDT / 2021.07.30 2315 UTC
Wind: from the S (180 degrees) at 6 MPH (5 KT):0
Visibility: 10 mile(s):0
Sky conditions: clear
Temperature: 76.5 F (24.7 C)
Dew Point: 57.7 F (14.3 C)
Relative Humidity: 52%
Pressure (altimeter): 30.04 in. Hg (1017 hPa)
ob: KSUW 302315Z AUTO 18005KT 10SM CLR 25/14 A3004 RMK AO2 T02470143
cycle: 23

Station Type Date Time Source
KSUW TAF UTC NOAA

Error!

Example: see airport list